<?xml version='1.0' encoding='UTF-8'?><gpx version="1.1" creator="JPX - https://github.com/jenetics/jpx" xmlns="http://www.topografix.com/GPX/1/1"><trk><trkseg><trkpt lat="39.93445543192598" lon="8.801204485994928"><ele>278.0</ele><time>2026-05-03T08:53:55.999Z</time></trkpt><trkpt lat="39.93452172862121" lon="8.801171508466"><ele>278.0</ele><time>2026-05-03T08:53:59.999Z</time></trkpt><trkpt lat="39.93458950248946" lon="8.801267383157725"><ele>278.0</ele><time>2026-05-03T08:54:03.999Z</time></trkpt><trkpt lat="39.934639682825406" lon="8.801374102392868"><ele>278.0</ele><time>2026-05-03T08:54:05.999Z</time></trkpt><trkpt lat="39.93474314857073" lon="8.801458350833736"><ele>278.0</ele><time>2026-05-03T08:54:07.999Z</time></trkpt><trkpt lat="39.93484405840329" lon="8.801536623759738"><ele>278.0</ele><time>2026-05-03T08:54:09.999Z</time></trkpt><trkpt lat="39.9348999771403" lon="8.801599097960782"><ele>278.0</ele><time>2026-05-03T08:54:10.999Z</time></trkpt><trkpt lat="39.93495386963965" lon="8.801659709926753"><ele>278.0</ele><time>2026-05-03T08:54:11.999Z</time></trkpt><trkpt lat="39.93501168994725" lon="8.801721023789595"><ele>278.0</ele><time>2026-05-03T08:54:12.999Z</time></trkpt><trkpt lat="39.935054352470786" lon="8.801786866126434"><ele>278.0</ele><time>2026-05-03T08:54:13.999Z</time></trkpt><trkpt lat="39.935090949334686" lon="8.801865175696259"><ele>278.0</ele><time>2026-05-03T08:54:14.999Z</time></trkpt><trkpt lat="39.935118684632755" lon="8.801947196034899"><ele>278.0</ele><time>2026-05-03T08:54:16Z</time></trkpt><trkpt lat="39.93513667759818" lon="8.802028281142096"><ele>278.1428571428571</ele><time>2026-05-03T08:54:17Z</time></trkpt><trkpt lat="39.9351477417198" lon="8.80211558550786"><ele>278.2857142857143</ele><time>2026-05-03T08:54:18Z</time></trkpt><trkpt lat="39.93515622296709" lon="8.802208307502635"><ele>278.42857142857144</ele><time>2026-05-03T08:54:19Z</time></trkpt><trkpt lat="39.93516533459882" lon="8.802296659848144"><ele>278.57142857142856</ele><time>2026-05-03T08:54:20Z</time></trkpt><trkpt lat="39.93519339858117" lon="8.802389606133486"><ele>278.7142857142857</ele><time>2026-05-03T08:54:21Z</time></trkpt><trkpt lat="39.935225550923164" lon="8.80247874315875"><ele>278.85714285714283</ele><time>2026-05-03T08:54:22Z</time></trkpt><trkpt lat="39.93524957264403" lon="8.802555544755522"><ele>279.0</ele><time>2026-05-03T08:54:23Z</time></trkpt><trkpt lat="39.93531745829519" lon="8.802678656748451"><ele>279.0</ele><time>2026-05-03T08:54:25Z</time></trkpt><trkpt lat="39.93537346040507" lon="8.802780274049384"><ele>279.0</ele><time>2026-05-03T08:54:27Z</time></trkpt><trkpt lat="39.93536774857872" lon="8.802869770534835"><ele>279.0</ele><time>2026-05-03T08:54:34Z</time></trkpt><trkpt lat="39.93537112026097" lon="8.802957207200082"><ele>279.0</ele><time>2026-05-03T08:54:36Z</time></trkpt><trkpt lat="39.93535837521034" lon="8.803050619341503"><ele>279.0</ele><time>2026-05-03T08:54:39Z</time></trkpt><trkpt lat="39.93538354303256" lon="8.802920553249843"><ele>279.0</ele><time>2026-05-03T08:54:57Z</time></trkpt><trkpt lat="39.93538512934651" lon="8.80282817206016"><ele>279.0</ele><time>2026-05-03T08:54:58Z</time></trkpt><trkpt lat="39.935347309832366" lon="8.802684325345218"><ele>279.0</ele><time>2026-05-03T08:55:00Z</time></trkpt><trkpt lat="39.93527432658438" lon="8.80254802093489"><ele>279.0</ele><time>2026-05-03T08:55:01.999Z</time></trkpt><trkpt lat="39.935215497008876" lon="8.802409619431458"><ele>279.0</ele><time>2026-05-03T08:55:03.999Z</time></trkpt><trkpt lat="39.935182125940145" lon="8.802266923699925"><ele>278.8</ele><time>2026-05-03T08:55:05.999Z</time></trkpt><trkpt lat="39.93516423104693" lon="8.802174944376867"><ele>278.59999999999997</ele><time>2026-05-03T08:55:06.999Z</time></trkpt><trkpt lat="39.93513634802011" lon="8.802033544978473"><ele>278.4</ele><time>2026-05-03T08:55:08.999Z</time></trkpt><trkpt lat="39.93512033217254" lon="8.801952095460589"><ele>278.2</ele><time>2026-05-03T08:55:09.999Z</time></trkpt><trkpt lat="39.935082235364064" lon="8.801836708724245"><ele>278.0</ele><time>2026-05-03T08:55:11.999Z</time></trkpt><trkpt lat="39.935026292629225" lon="8.801710105755735"><ele>278.0</ele><time>2026-05-03T08:55:13.999Z</time></trkpt><trkpt lat="39.934962321970765" lon="8.801625022887364"><ele>278.0</ele><time>2026-05-03T08:55:15.999Z</time></trkpt><trkpt lat="39.93484656120964" lon="8.801521025820753"><ele>278.0</ele><time>2026-05-03T08:55:18.999Z</time></trkpt><trkpt lat="39.93474670827075" lon="8.801435947765613"><ele>278.0</ele><time>2026-05-03T08:55:20.999Z</time></trkpt><trkpt lat="39.93466222140122" lon="8.801356795892536"><ele>278.0</ele><time>2026-05-03T08:55:22.999Z</time></trkpt><trkpt lat="39.93461107238077" lon="8.801296152045508"><ele>278.0</ele><time>2026-05-03T08:55:24.999Z</time></trkpt><trkpt lat="39.93456835858856" lon="8.801233318430477"><ele>278.0</ele><time>2026-05-03T08:55:26.999Z</time></trkpt><trkpt lat="39.934509445423814" lon="8.801169220821901"><ele>278.0</ele><time>2026-05-03T08:55:29.999Z</time></trkpt><trkpt lat="39.93441750598977" lon="8.801187312652633"><ele>278.0</ele><time>2026-05-03T08:55:32.999Z</time></trkpt><trkpt lat="39.93435471830039" lon="8.801240261238348"><ele>278.0</ele><time>2026-05-03T08:55:34.999Z</time></trkpt><trkpt lat="39.93428745394519" lon="8.801280075609293"><ele>279.33333333333337</ele><time>2026-05-03T08:55:36.999Z</time></trkpt><trkpt lat="39.93420505760974" lon="8.801322555073082"><ele>280.6666666666667</ele><time>2026-05-03T08:55:38.999Z</time></trkpt><trkpt lat="39.934114940601866" lon="8.80133012989458"><ele>282.0</ele><time>2026-05-03T08:55:40.999Z</time></trkpt><trkpt lat="39.93402772975594" lon="8.80134000171412"><ele>283.3333333333333</ele><time>2026-05-03T08:55:42.999Z</time></trkpt><trkpt lat="39.93394081637579" lon="8.801345266739474"><ele>284.66666666666663</ele><time>2026-05-03T08:56:05.999Z</time></trkpt><trkpt lat="39.93387945374032" lon="8.801392858865155"><ele>286.0</ele><time>2026-05-03T08:56:07.999Z</time></trkpt><trkpt lat="39.933981952208654" lon="8.8013918771565"><ele>286.0</ele><time>2026-05-03T08:56:15.999Z</time></trkpt><trkpt lat="39.93407008015619" lon="8.801364270358528"><ele>286.0</ele><time>2026-05-03T08:56:18.999Z</time></trkpt><trkpt lat="39.93416831362119" lon="8.801339857119777"><ele>286.0</ele><time>2026-05-03T08:56:20.999Z</time></trkpt><trkpt lat="39.93429513620855" lon="8.801294179530881"><ele>286.0</ele><time>2026-05-03T08:56:22.999Z</time></trkpt><trkpt lat="39.934355237980554" lon="8.801259696770652"><ele>286.0</ele><time>2026-05-03T08:56:23.999Z</time></trkpt><trkpt lat="39.9344644903592" lon="8.801198849898988"><ele>284.0</ele><time>2026-05-03T08:56:25.999Z</time></trkpt><trkpt lat="39.93457584415482" lon="8.801146247776293"><ele>282.0</ele><time>2026-05-03T08:56:27.999Z</time></trkpt><trkpt lat="39.93469380804618" lon="8.801092099394777"><ele>280.0</ele><time>2026-05-03T08:56:30Z</time></trkpt><trkpt lat="39.93481022243494" lon="8.801048196291067"><ele>278.0</ele><time>2026-05-03T08:56:32Z</time></trkpt><trkpt lat="39.93492042968683" lon="8.801046294306477"><ele>278.0</ele><time>2026-05-03T08:56:34Z</time></trkpt><trkpt lat="39.93501458091766" lon="8.801092851166365"><ele>278.0</ele><time>2026-05-03T08:56:36Z</time></trkpt><trkpt lat="39.93507747783065" lon="8.801189080172701"><ele>278.0</ele><time>2026-05-03T08:56:38Z</time></trkpt><trkpt lat="39.93513101451908" lon="8.801261419639877"><ele>278.0</ele><time>2026-05-03T08:56:40Z</time></trkpt><trkpt lat="39.93518366978066" lon="8.801329694534266"><ele>278.0</ele><time>2026-05-03T08:56:43Z</time></trkpt><trkpt lat="39.93518065131373" lon="8.801240423148641"><ele>278.0</ele><time>2026-05-03T08:56:52Z</time></trkpt><trkpt lat="39.93511043099505" lon="8.80120538887385"><ele>278.0</ele><time>2026-05-03T08:56:54Z</time></trkpt><trkpt lat="39.93500811095837" lon="8.801093975104289"><ele>278.0</ele><time>2026-05-03T08:56:56Z</time></trkpt><trkpt lat="39.93494397319924" lon="8.80098622236055"><ele>278.0</ele><time>2026-05-03T08:56:58Z</time></trkpt><trkpt lat="39.934879561513924" lon="8.800905262294025"><ele>278.0</ele><time>2026-05-03T08:57:00Z</time></trkpt><trkpt lat="39.934625026658615" lon="8.801107465778443"><ele>278.0</ele><time>2026-05-03T08:57:02Z</time></trkpt><trkpt lat="39.934535735569014" lon="8.801149794231915"><ele>278.0</ele><time>2026-05-03T08:57:03Z</time></trkpt><trkpt lat="39.93444888749403" lon="8.801203498360323"><ele>278.0</ele><time>2026-05-03T08:57:04Z</time></trkpt><trkpt lat="39.93435413068602" lon="8.801263994065815"><ele>278.0</ele><time>2026-05-03T08:57:05Z</time></trkpt><trkpt lat="39.9342661777953" lon="8.801309003130832"><ele>278.0</ele><time>2026-05-03T08:57:06Z</time></trkpt><trkpt lat="39.93417295051143" lon="8.80133314986537"><ele>279.6</ele><time>2026-05-03T08:57:07Z</time></trkpt><trkpt lat="39.93408262627539" lon="8.801340305523768"><ele>281.20000000000005</ele><time>2026-05-03T08:57:08Z</time></trkpt><trkpt lat="39.933969826502704" lon="8.801350853193338"><ele>282.8</ele><time>2026-05-03T08:57:09Z</time></trkpt><trkpt lat="39.93386336159646" lon="8.801380258189862"><ele>284.40000000000003</ele><time>2026-05-03T08:57:10Z</time></trkpt><trkpt lat="39.93375538649682" lon="8.801396556542983"><ele>286.0</ele><time>2026-05-03T08:57:11Z</time></trkpt><trkpt lat="39.933645518004546" lon="8.801412504664937"><ele>286.0</ele><time>2026-05-03T08:57:12Z</time></trkpt><trkpt lat="39.9335350243732" lon="8.801438864029938"><ele>286.0</ele><time>2026-05-03T08:57:13Z</time></trkpt><trkpt lat="39.93342510506208" lon="8.80146698595375"><ele>286.0</ele><time>2026-05-03T08:57:14Z</time></trkpt><trkpt lat="39.93331800578143" lon="8.801505292722846"><ele>286.0</ele><time>2026-05-03T08:57:15Z</time></trkpt><trkpt lat="39.93321543512732" lon="8.801550027775235"><ele>286.0</ele><time>2026-05-03T08:57:16Z</time></trkpt><trkpt lat="39.93311541386929" lon="8.801585268524034"><ele>286.6</ele><time>2026-05-03T08:57:17Z</time></trkpt><trkpt lat="39.93301257382905" lon="8.801609794848385"><ele>287.20000000000005</ele><time>2026-05-03T08:57:18Z</time></trkpt><trkpt lat="39.93290851131152" lon="8.801645062234613"><ele>287.79999999999995</ele><time>2026-05-03T08:57:19Z</time></trkpt><trkpt lat="39.93281398460121" lon="8.801694459325716"><ele>288.4</ele><time>2026-05-03T08:57:19.999Z</time></trkpt><trkpt lat="39.9327149776229" lon="8.801732837811405"><ele>289.0</ele><time>2026-05-03T08:57:20.999Z</time></trkpt><trkpt lat="39.93262615564997" lon="8.801751088979644"><ele>288.2</ele><time>2026-05-03T08:57:21.999Z</time></trkpt><trkpt lat="39.93254794232023" lon="8.801772467361863"><ele>287.4</ele><time>2026-05-03T08:57:22.999Z</time></trkpt><trkpt lat="39.9324574305136" lon="8.801817318341906"><ele>286.6</ele><time>2026-05-03T08:57:23.999Z</time></trkpt><trkpt lat="39.93238007747168" lon="8.801878782158118"><ele>285.8</ele><time>2026-05-03T08:57:24.999Z</time></trkpt><trkpt lat="39.93230652125247" lon="8.801964552611716"><ele>285.0</ele><time>2026-05-03T08:57:25.999Z</time></trkpt><trkpt lat="39.932247639430834" lon="8.802071229625549"><ele>289.0</ele><time>2026-05-03T08:57:26.999Z</time></trkpt><trkpt lat="39.93220724732404" lon="8.802188485385937"><ele>293.0</ele><time>2026-05-03T08:57:27.999Z</time></trkpt><trkpt lat="39.932179673080434" lon="8.802332027341283"><ele>297.0</ele><time>2026-05-03T08:57:28.999Z</time></trkpt><trkpt lat="39.932165616008376" lon="8.802490551877604"><ele>301.0</ele><time>2026-05-03T08:57:29.999Z</time></trkpt><trkpt lat="39.932151402104225" lon="8.802642159740957"><ele>304.2</ele><time>2026-05-03T08:57:30.999Z</time></trkpt><trkpt lat="39.93211684865601" lon="8.802780769579982"><ele>307.40000000000003</ele><time>2026-05-03T08:57:31.999Z</time></trkpt><trkpt lat="39.932083550222515" lon="8.802908808275289"><ele>310.6</ele><time>2026-05-03T08:57:32.999Z</time></trkpt><trkpt lat="39.93203840179422" lon="8.803039357386954"><ele>313.8</ele><time>2026-05-03T08:57:33.999Z</time></trkpt><trkpt lat="39.93199978792668" lon="8.803156942599854"><ele>317.0</ele><time>2026-05-03T08:57:34.999Z</time></trkpt><trkpt lat="39.93198523367577" lon="8.803271580948076"><ele>317.0</ele><time>2026-05-03T08:57:35.999Z</time></trkpt><trkpt lat="39.93198817260595" lon="8.803413006085044"><ele>317.0</ele><time>2026-05-03T08:57:36.999Z</time></trkpt><trkpt lat="39.931999926317474" lon="8.803557076142761"><ele>317.0</ele><time>2026-05-03T08:57:37.999Z</time></trkpt><trkpt lat="39.9319957515732" lon="8.803681364836564"><ele>317.0</ele><time>2026-05-03T08:57:38.999Z</time></trkpt><trkpt lat="39.93198297925819" lon="8.803798083710289"><ele>317.0</ele><time>2026-05-03T08:57:39.999Z</time></trkpt><trkpt lat="39.931957980762824" lon="8.80390418373921"><ele>317.0</ele><time>2026-05-03T08:57:40.999Z</time></trkpt><trkpt lat="39.93193045466975" lon="8.804009736965854"><ele>317.0</ele><time>2026-05-03T08:57:41.999Z</time></trkpt><trkpt lat="39.931921962194515" lon="8.80415367681246"><ele>317.0</ele><time>2026-05-03T08:57:43.999Z</time></trkpt><trkpt lat="39.93193980507453" lon="8.80423628280494"><ele>317.0</ele><time>2026-05-03T08:57:44.999Z</time></trkpt><trkpt lat="39.93196648427892" lon="8.804317476280865"><ele>317.0</ele><time>2026-05-03T08:57:45.999Z</time></trkpt><trkpt lat="39.93202467322083" lon="8.804380223859798"><ele>317.0</ele><time>2026-05-03T08:57:46.999Z</time></trkpt><trkpt lat="39.93209012061006" lon="8.804432615545014"><ele>317.2</ele><time>2026-05-03T08:57:47.999Z</time></trkpt><trkpt lat="39.93216176997985" lon="8.804484417866353"><ele>317.4</ele><time>2026-05-03T08:57:48.999Z</time></trkpt><trkpt lat="39.932222374244446" lon="8.804552080255725"><ele>317.6</ele><time>2026-05-03T08:57:49.999Z</time></trkpt><trkpt lat="39.93228746746353" lon="8.804635128369442"><ele>317.8</ele><time>2026-05-03T08:57:50.999Z</time></trkpt><trkpt lat="39.9323326922375" lon="8.804718323077923"><ele>318.0</ele><time>2026-05-03T08:57:51.999Z</time></trkpt><trkpt lat="39.93244128168398" lon="8.806075508072814"><ele>318.0</ele><time>2026-05-03T08:58:05.999Z</time></trkpt><trkpt lat="39.93241206366742" lon="8.806175449783158"><ele>318.0</ele><time>2026-05-03T08:58:07.999Z</time></trkpt><trkpt lat="39.932306970097045" lon="8.806189797576149"><ele>318.0</ele><time>2026-05-03T08:58:09.999Z</time></trkpt><trkpt lat="39.932195813035065" lon="8.80610008930195"><ele>318.0</ele><time>2026-05-03T08:58:11.999Z</time></trkpt><trkpt lat="39.93213767781241" lon="8.805990972928422"><ele>318.0</ele><time>2026-05-03T08:58:13.999Z</time></trkpt><trkpt lat="39.932093907318475" lon="8.805877756933592"><ele>318.0</ele><time>2026-05-03T08:58:15.999Z</time></trkpt><trkpt lat="39.93200016670013" lon="8.806044997540582"><ele>318.0</ele><time>2026-05-03T08:58:17.999Z</time></trkpt><trkpt lat="39.93202830111351" lon="8.806137122641235"><ele>318.0</ele><time>2026-05-03T08:58:18.999Z</time></trkpt><trkpt lat="39.93208029803863" lon="8.806223174047219"><ele>318.0</ele><time>2026-05-03T08:58:19.999Z</time></trkpt><trkpt lat="39.93209282464051" lon="8.806352665507566"><ele>318.0</ele><time>2026-05-03T08:58:21.999Z</time></trkpt><trkpt lat="39.9322821392114" lon="8.806416094436052"><ele>318.0</ele><time>2026-05-03T08:58:22.999Z</time></trkpt><trkpt lat="39.9323265939971" lon="8.806488655556114"><ele>318.0</ele><time>2026-05-03T08:58:23.999Z</time></trkpt><trkpt lat="39.932375537150236" lon="8.806543967949391"><ele>318.0</ele><time>2026-05-03T08:58:25Z</time></trkpt><trkpt lat="39.932428987132894" lon="8.806594224025265"><ele>318.0</ele><time>2026-05-03T08:58:26Z</time></trkpt><trkpt lat="39.93247797965141" lon="8.806646138090345"><ele>318.0</ele><time>2026-05-03T08:58:27Z</time></trkpt><trkpt lat="39.93252558365499" lon="8.80671589810533"><ele>318.0</ele><time>2026-05-03T08:58:28Z</time></trkpt><trkpt lat="39.932565017901084" lon="8.806799827315013"><ele>318.0</ele><time>2026-05-03T08:58:29Z</time></trkpt><trkpt lat="39.93259688980073" lon="8.806889881941572"><ele>320.8333333333333</ele><time>2026-05-03T08:58:30Z</time></trkpt><trkpt lat="39.932618753279336" lon="8.8069835545149"><ele>323.6666666666667</ele><time>2026-05-03T08:58:31Z</time></trkpt><trkpt lat="39.932636463321394" lon="8.807078932322659"><ele>326.5</ele><time>2026-05-03T08:58:32Z</time></trkpt><trkpt lat="39.93264667861999" lon="8.80717892729048"><ele>329.33333333333337</ele><time>2026-05-03T08:58:33Z</time></trkpt><trkpt lat="39.932644025719576" lon="8.807268926843271"><ele>332.1666666666667</ele><time>2026-05-03T08:58:34Z</time></trkpt><trkpt lat="39.93264428788762" lon="8.807373031870188"><ele>335.0</ele><time>2026-05-03T08:58:35Z</time></trkpt><trkpt lat="39.93264475069221" lon="8.807480767704151"><ele>335.0</ele><time>2026-05-03T08:58:36Z</time></trkpt><trkpt lat="39.932646670086065" lon="8.807586210911"><ele>335.0</ele><time>2026-05-03T08:58:37Z</time></trkpt><trkpt lat="39.93262806354647" lon="8.807811330532779"><ele>335.0</ele><time>2026-05-03T08:58:39Z</time></trkpt><trkpt lat="39.93261099428454" lon="8.807930832963503"><ele>335.0</ele><time>2026-05-03T08:58:40Z</time></trkpt><trkpt lat="39.932610390052226" lon="8.808050969610346"><ele>335.0</ele><time>2026-05-03T08:58:41Z</time></trkpt><trkpt lat="39.93263039484073" lon="8.808154839682247"><ele>336.57142857142856</ele><time>2026-05-03T08:58:42Z</time></trkpt><trkpt lat="39.93265939609541" lon="8.808236333133433"><ele>338.1428571428571</ele><time>2026-05-03T08:58:43Z</time></trkpt><trkpt lat="39.93269037946722" lon="8.80832166457242"><ele>339.71428571428567</ele><time>2026-05-03T08:58:45Z</time></trkpt><trkpt lat="39.93261234686285" lon="8.80835230234423"><ele>341.2857142857143</ele><time>2026-05-03T08:58:54Z</time></trkpt><trkpt lat="39.93256280406242" lon="8.808301044828564"><ele>342.8571428571429</ele><time>2026-05-03T08:58:55Z</time></trkpt><trkpt lat="39.93253703941972" lon="8.80822382710078"><ele>344.4285714285714</ele><time>2026-05-03T08:58:56Z</time></trkpt><trkpt lat="39.932508076723266" lon="8.808101160831246"><ele>346.0</ele><time>2026-05-03T08:58:58Z</time></trkpt><trkpt lat="39.932462117455934" lon="8.807857990259349"><ele>346.0</ele><time>2026-05-03T08:59:01Z</time></trkpt><trkpt lat="39.93240950773194" lon="8.80777850347215"><ele>346.0</ele><time>2026-05-03T08:59:04Z</time></trkpt><trkpt lat="39.93237003438872" lon="8.807867633287252"><ele>346.0</ele><time>2026-05-03T08:59:07Z</time></trkpt><trkpt lat="39.93239811429996" lon="8.807955305001226"><ele>346.0</ele><time>2026-05-03T08:59:20Z</time></trkpt><trkpt lat="39.93240443566324" lon="8.808149699541321"><ele>346.0</ele><time>2026-05-03T08:59:24Z</time></trkpt><trkpt lat="39.93239065811633" lon="8.808317268913141"><ele>346.0</ele><time>2026-05-03T08:59:26Z</time></trkpt><trkpt lat="39.93238367379611" lon="8.808411409475626"><ele>346.0</ele><time>2026-05-03T08:59:27Z</time></trkpt><trkpt lat="39.93238327001084" lon="8.808516596166548"><ele>346.0</ele><time>2026-05-03T08:59:28Z</time></trkpt><trkpt lat="39.93239695475048" lon="8.808614157251409"><ele>346.0</ele><time>2026-05-03T08:59:29Z</time></trkpt><trkpt lat="39.932404646484585" lon="8.808725535515668"><ele>346.0</ele><time>2026-05-03T08:59:31Z</time></trkpt><trkpt lat="39.932356548870175" lon="8.808803465849994"><ele>346.0</ele><time>2026-05-03T08:59:33Z</time></trkpt><trkpt lat="39.93228837298574" lon="8.80885518464943"><ele>347.6</ele><time>2026-05-03T08:59:34Z</time></trkpt><trkpt lat="39.9322241370751" lon="8.8088919101853"><ele>349.20000000000005</ele><time>2026-05-03T08:59:35Z</time></trkpt><trkpt lat="39.93215564317526" lon="8.808981373977089"><ele>350.79999999999995</ele><time>2026-05-03T08:59:37Z</time></trkpt><trkpt lat="39.93215214252555" lon="8.809092256000545"><ele>352.4</ele><time>2026-05-03T08:59:39Z</time></trkpt><trkpt lat="39.93221800182924" lon="8.809217311094049"><ele>354.0</ele><time>2026-05-03T08:59:41Z</time></trkpt><trkpt lat="39.93229997027634" lon="8.80938897313484"><ele>356.5</ele><time>2026-05-03T08:59:43Z</time></trkpt><trkpt lat="39.93234868484323" lon="8.80948862824735"><ele>359.0</ele><time>2026-05-03T08:59:44Z</time></trkpt><trkpt lat="39.93239391421894" lon="8.809570844373953"><ele>361.5</ele><time>2026-05-03T08:59:45Z</time></trkpt><trkpt lat="39.93247808963646" lon="8.809628235165093"><ele>364.0</ele><time>2026-05-03T08:59:47Z</time></trkpt><trkpt lat="39.93245578773421" lon="8.80970993590102"><ele>366.5</ele><time>2026-05-03T08:59:50Z</time></trkpt><trkpt lat="39.932369206907886" lon="8.809702692613472"><ele>369.0</ele><time>2026-05-03T08:59:52Z</time></trkpt><trkpt lat="39.93231496957851" lon="8.809647359021975"><ele>369.0</ele><time>2026-05-03T08:59:53Z</time></trkpt><trkpt lat="39.932239707155816" lon="8.80959857499642"><ele>369.0</ele><time>2026-05-03T08:59:54Z</time></trkpt><trkpt lat="39.9321501651275" lon="8.809535776446268"><ele>369.0</ele><time>2026-05-03T08:59:55Z</time></trkpt><trkpt lat="39.93205130110043" lon="8.809486423562268"><ele>369.0</ele><time>2026-05-03T08:59:56Z</time></trkpt><trkpt lat="39.93196369473866" lon="8.809459816552724"><ele>369.0</ele><time>2026-05-03T08:59:57Z</time></trkpt><trkpt lat="39.93188613099546" lon="8.809442767714343"><ele>369.0</ele><time>2026-05-03T08:59:58Z</time></trkpt><trkpt lat="39.9318050213376" lon="8.809442683922214"><ele>369.0</ele><time>2026-05-03T08:59:59Z</time></trkpt><trkpt lat="39.931715231627855" lon="8.809445193287676"><ele>369.0</ele><time>2026-05-03T09:00:00Z</time></trkpt><trkpt lat="39.93163242262037" lon="8.80945260843848"><ele>369.0</ele><time>2026-05-03T09:00:01Z</time></trkpt><trkpt lat="39.931566025828914" lon="8.809475912020813"><ele>369.0</ele><time>2026-05-03T09:00:02Z</time></trkpt><trkpt lat="39.93142128080992" lon="8.809554095436127"><ele>372.6666666666667</ele><time>2026-05-03T09:00:03.999Z</time></trkpt><trkpt lat="39.93136620810303" lon="8.809608191169124"><ele>376.33333333333337</ele><time>2026-05-03T09:00:04.999Z</time></trkpt><trkpt lat="39.93132086150171" lon="8.809667155161552"><ele>380.0</ele><time>2026-05-03T09:00:05.999Z</time></trkpt><trkpt lat="39.93125188155422" lon="8.80979444568169"><ele>383.6666666666667</ele><time>2026-05-03T09:00:07.999Z</time></trkpt><trkpt lat="39.93124547541991" lon="8.809881975303027"><ele>387.33333333333337</ele><time>2026-05-03T09:00:08.999Z</time></trkpt><trkpt lat="39.931234417924095" lon="8.809982554137324"><ele>391.0</ele><time>2026-05-03T09:00:09.999Z</time></trkpt><trkpt lat="39.93124157132027" lon="8.81007542995128"><ele>394.4</ele><time>2026-05-03T09:00:10.999Z</time></trkpt><trkpt lat="39.931246816866675" lon="8.810194153707952"><ele>397.8</ele><time>2026-05-03T09:00:11.999Z</time></trkpt><trkpt lat="39.93125570255221" lon="8.810304267741358"><ele>401.2</ele><time>2026-05-03T09:00:12.999Z</time></trkpt><trkpt lat="39.931262969499684" lon="8.810408276309898"><ele>404.59999999999997</ele><time>2026-05-03T09:00:13.999Z</time></trkpt><trkpt lat="39.93125034989576" lon="8.810568271311293"><ele>408.0</ele><time>2026-05-03T09:00:15.999Z</time></trkpt><trkpt lat="39.93123217114556" lon="8.810660516832504"><ele>408.0</ele><time>2026-05-03T09:00:16.999Z</time></trkpt><trkpt lat="39.93119797240363" lon="8.810742634283677"><ele>408.0</ele><time>2026-05-03T09:00:17.999Z</time></trkpt><trkpt lat="39.931129071085735" lon="8.810822589101182"><ele>408.0</ele><time>2026-05-03T09:00:18.999Z</time></trkpt><trkpt lat="39.931068351767436" lon="8.81088976796328"><ele>408.0</ele><time>2026-05-03T09:00:19.999Z</time></trkpt><trkpt lat="39.93100648693107" lon="8.810943417330044"><ele>408.0</ele><time>2026-05-03T09:00:20.999Z</time></trkpt><trkpt lat="39.930933379566945" lon="8.810993529698601"><ele>408.0</ele><time>2026-05-03T09:00:21.999Z</time></trkpt><trkpt lat="39.93086620735023" lon="8.811048602171347"><ele>412.0</ele><time>2026-05-03T09:00:22.999Z</time></trkpt><trkpt lat="39.93071995159129" lon="8.811191360935021"><ele>416.0</ele><time>2026-05-03T09:00:24.999Z</time></trkpt><trkpt lat="39.93067210227565" lon="8.811266408205679"><ele>420.0</ele><time>2026-05-03T09:00:25.999Z</time></trkpt><trkpt lat="39.93059298331704" lon="8.811351034831999"><ele>424.0</ele><time>2026-05-03T09:00:28Z</time></trkpt><trkpt lat="39.930517695547486" lon="8.811283329621604"><ele>424.00000000000006</ele><time>2026-05-03T09:00:30Z</time></trkpt><trkpt lat="39.93053324496092" lon="8.81114940378667"><ele>424.0</ele><time>2026-05-03T09:00:32Z</time></trkpt><trkpt lat="39.93058186925228" lon="8.81107548017683"><ele>424.0</ele><time>2026-05-03T09:00:33Z</time></trkpt><trkpt lat="39.93062195547875" lon="8.810984763919716"><ele>424.0</ele><time>2026-05-03T09:00:34Z</time></trkpt><trkpt lat="39.930646533313556" lon="8.810893521386381"><ele>424.00000000000006</ele><time>2026-05-03T09:00:35Z</time></trkpt><trkpt lat="39.930646264401936" lon="8.810789257357431"><ele>424.0</ele><time>2026-05-03T09:00:36Z</time></trkpt><trkpt lat="39.930638220177926" lon="8.810687932950378"><ele>410.0</ele><time>2026-05-03T09:00:37Z</time></trkpt><trkpt lat="39.930603533203225" lon="8.81056312378981"><ele>410.0</ele><time>2026-05-03T09:00:39Z</time></trkpt><trkpt lat="39.93053713975376" lon="8.810545367091112"><ele>410.0</ele><time>2026-05-03T09:00:41Z</time></trkpt><trkpt lat="39.93049847756618" lon="8.810647837077061"><ele>410.0</ele><time>2026-05-03T09:00:44Z</time></trkpt></trkseg></trk></gpx>